Information for Cayenne – Félix Eboué Airport

back to airport list

ICAO Code:SOCA Country:French Guiana
Airport Name:Cayenne – Félix Eboué Airport Is Hub:No
Latitude:4.81972 Longitude:-52.3619
Scheduled Departures:0 Scheduled Arrivals:0
Total Past Departures:1 Total Past Arrivals:1
Pilots Based:0 Current Pilot Location:0
SOCA 191300Z AUTO 13006KT 080V190 9999 BKN027 BKN043 31/24 Q1014 NOSIG


Nearby Destination Airports

ICAO Airport Country GC Distance View
No destination airports within a 500 NM radius!


+ Show Timetable

Scheduled Departures from SOCA

Flight To Destination Days Dep. Time Aircraft Info
No Scheduled Departures!


Scheduled Arrivals to SOCA

Flight From Origin Days Arr. Time Aircraft Info
No Scheduled Arrivals!
+ Show Recent Flight Info

Recent Departures from SOCA

Flight To Destination Pilot Flighttime Landingrate Aircraft View
ASXC47 SBFZ Pinto Martins – Fortaleza International Airport Damian Belica 02.58.13 -228 ft/m B734 View Report


Recent Arrivals to SOCA

Flight From Origin Pilot Flighttime Landingrate Aircraft View
ASXC46 SVMG Santiago Mariño Caribbean International Airport Damian Belica 02.12.11 -199 ft/m B734 View Report
+ Show Pilot Information

Pilots based at SOCA

Avatar Pilot ID Name Location Rank View Profile
No Pilots are based at this airport!


Pilots currently at SOCA

Avatar Pilot ID Name Location Rank On Location since View Profile
Currently there are no pilots at this airport!
- Hide Map